Time;durP1;ratioP1;P1;durP2;ratioP2;P2;SDS_P1;SDS_P2;PMS_P1;PMS_P2;Temp;Humidity;BMP_temperature;BMP_pressure;BME280_temperature;BME280_humidity;BME280_pressure;Samples;Min_cycle;Max_cycle;Signal;HPM_P1;HPM_P2
2023/01/25 00:00:25;;;;;;;2.90;2.70;;;19.60;50.00;;;;;;5012175;28;20277;-68
2023/01/25 00:02:50;;;;;;;3.50;3.20;;;19.60;50.00;;;;;;5006867;28;20172;-68
2023/01/25 00:05:16;;;;;;;3.25;3.00;;;19.60;50.10;;;;;;5004549;28;20207;-68
2023/01/25 00:07:42;;;;;;;3.22;2.95;;;19.60;50.00;;;;;;5010875;28;20209;-67
2023/01/25 00:10:08;;;;;;;3.40;3.10;;;19.60;50.00;;;;;;4991203;28;20188;-68
2023/01/25 00:12:34;;;;;;;3.20;3.00;;;19.60;50.10;;;;;;5012805;28;20571;-68
2023/01/25 00:15:00;;;;;;;3.13;2.70;;;19.60;50.00;;;;;;5012635;28;20218;-68
2023/01/25 00:17:26;;;;;;;2.95;2.75;;;19.60;50.00;;;;;;5012397;28;20287;-68
2023/01/25 00:19:51;;;;;;;2.72;2.53;;;19.60;50.00;;;;;;4984465;28;20199;-67
2023/01/25 00:22:17;;;;;;;2.90;2.70;;;19.60;50.00;;;;;;5008544;28;20187;-67
2023/01/25 00:24:43;;;;;;;2.95;2.75;;;19.60;50.00;;;;;;4995336;28;20204;-68
2023/01/25 00:27:09;;;;;;;2.80;2.60;;;19.60;50.00;;;;;;5012231;28;20325;-68
2023/01/25 00:29:34;;;;;;;2.85;2.65;;;19.60;50.00;;;;;;5002328;28;20266;-68
2023/01/25 00:32:00;;;;;;;3.42;3.13;;;19.60;50.00;;;;;;4992449;28;20189;-68
2023/01/25 00:34:26;;;;;;;3.00;2.80;;;19.60;50.00;;;;;;4992709;28;20202;-68
2023/01/25 00:37:12;;;;;;;2.83;2.63;;;19.60;50.10;;;;;;5011915;28;20219;-67
2023/01/25 00:39:40;;;;;;;3.13;2.83;;;19.60;50.00;;;;;;4995461;28;20585;-68
2023/01/25 00:42:14;;;;;;;3.05;2.85;;;19.60;50.00;;;;;;4996536;28;20179;-67
2023/01/25 00:44:40;;;;;;;3.30;3.00;;;19.60;50.00;;;;;;5011872;28;20204;-68
2023/01/25 00:47:10;;;;;;;3.25;2.83;;;19.60;50.00;;;;;;5011712;28;20288;-68
2023/01/25 00:49:37;;;;;;;3.03;2.83;;;19.60;50.00;;;;;;4977900;28;20627;-67
2023/01/25 00:52:04;;;;;;;3.05;2.85;;;19.60;50.00;;;;;;5005808;28;20180;-67
2023/01/25 00:54:29;;;;;;;3.72;3.25;;;19.60;50.00;;;;;;4995602;28;20553;-68
2023/01/25 00:56:56;;;;;;;3.20;2.95;;;19.60;50.00;;;;;;5011563;28;20254;-68
2023/01/25 00:59:23;;;;;;;2.70;2.50;;;19.60;50.00;;;;;;5012797;28;20203;-67
2023/01/25 01:01:51;;;;;;;3.42;3.13;;;19.60;50.00;;;;;;5011427;28;20184;-68
2023/01/25 01:04:17;;;;;;;3.08;2.88;;;19.60;50.00;;;;;;4995515;28;20173;-67
2023/01/25 01:06:43;;;;;;;2.95;2.75;;;19.60;50.00;;;;;;5003123;28;20208;-67
2023/01/25 01:09:16;;;;;;;3.25;2.95;;;19.60;50.00;;;;;;5011303;28;20684;-68
2023/01/25 01:11:42;;;;;;;3.17;2.88;;;19.60;50.00;;;;;;5009208;28;20188;-68
2023/01/25 01:14:09;;;;;;;3.08;2.78;;;19.60;50.00;;;;;;4989716;28;20180;-67
2023/01/25 01:16:35;;;;;;;3.10;2.90;;;19.60;50.00;;;;;;4994780;28;20219;-67
2023/01/25 01:19:01;;;;;;;3.40;3.10;;;19.60;49.90;;;;;;5011377;28;20259;-66
2023/01/25 01:21:27;;;;;;;3.00;2.80;;;19.60;50.00;;;;;;4994741;28;20666;-67
2023/01/25 01:23:54;;;;;;;3.03;2.78;;;19.60;50.00;;;;;;4994965;28;20207;-67
2023/01/25 01:26:20;;;;;;;2.60;2.40;;;19.60;49.90;;;;;;5011209;28;20222;-67
2023/01/25 01:28:46;;;;;;;3.17;2.92;;;19.60;49.90;;;;;;5008750;28;20351;-67
2023/01/25 01:31:20;;;;;;;2.70;2.50;;;19.60;50.00;;;;;;4983921;28;20195;-67
2023/01/25 01:33:59;;;;;;;2.92;2.72;;;19.60;50.00;;;;;;4981496;28;20180;-67
2023/01/25 01:36:28;;;;;;;2.90;2.70;;;19.60;49.90;;;;;;4994595;28;20207;-67
2023/01/25 01:38:54;;;;;;;3.25;2.97;;;19.60;49.90;;;;;;4999855;28;20185;-68
2023/01/25 01:41:20;;;;;;;3.15;2.88;;;19.60;49.90;;;;;;5007688;28;20192;-68
2023/01/25 01:43:47;;;;;;;3.00;2.78;;;19.60;49.90;;;;;;5011229;28;20184;-66
2023/01/25 01:46:37;;;;;;;3.13;2.92;;;19.60;49.90;;;;;;5011288;28;20185;-66
2023/01/25 01:49:25;;;;;;;2.65;2.45;;;19.60;49.90;;;;;;4995297;28;20178;-68
2023/01/25 01:52:14;;;;;;;2.72;2.53;;;19.60;49.90;;;;;;4987116;28;20180;-68
2023/01/25 01:54:50;;;;;;;3.10;2.90;;;19.50;49.80;;;;;;4993166;28;20180;-67
2023/01/25 01:57:35;;;;;;;2.80;2.60;;;19.50;50.40;;;;;;5005861;28;20199;-68
2023/01/25 02:00:10;;;;;;;2.95;2.70;;;19.50;49.80;;;;;;5004194;28;20607;-67
2023/01/25 02:02:40;;;;;;;3.20;3.00;;;19.60;49.90;;;;;;5012525;28;20190;-68
2023/01/25 02:05:34;;;;;;;3.25;2.95;;;19.60;50.40;;;;;;5010902;28;20563;-68
2023/01/25 02:08:05;;;;;;;2.75;2.55;;;19.60;49.90;;;;;;5010913;28;20204;-67
2023/01/25 02:10:32;;;;;;;3.28;2.97;;;19.50;49.90;;;;;;4996731;28;20191;-67
2023/01/25 02:12:59;;;;;;;2.90;2.70;;;19.60;49.90;;;;;;4998845;28;20180;-68
2023/01/25 02:15:43;;;;;;;2.80;2.60;;;19.50;49.80;;;;;;4982979;28;20279;-67
2023/01/25 02:18:11;;;;;;;2.80;2.60;;;19.50;49.80;;;;;;4991946;28;20215;-67
2023/01/25 02:20:44;;;;;;;3.10;2.85;;;19.50;49.90;;;;;;5003540;28;20203;-68
2023/01/25 02:23:39;;;;;;;2.70;2.50;;;19.60;49.90;;;;;;5000667;28;20188;-67
2023/01/25 02:26:06;;;;;;;2.88;2.67;;;19.50;49.80;;;;;;5014653;28;20246;-67
2023/01/25 02:28:45;;;;;;;3.10;2.90;;;19.50;49.80;;;;;;5014515;28;20184;-68
2023/01/25 02:31:11;;;;;;;2.90;2.70;;;19.50;49.80;;;;;;5014230;28;20191;-67
2023/01/25 02:33:38;;;;;;;3.10;2.90;;;19.60;49.90;;;;;;4997870;28;20215;-67
2023/01/25 02:36:07;;;;;;;2.90;2.70;;;19.50;49.80;;;;;;5006166;28;20211;-67
2023/01/25 02:38:38;;;;;;;3.28;2.97;;;19.50;49.80;;;;;;4986302;28;20213;-67
2023/01/25 02:41:34;;;;;;;2.78;2.58;;;19.50;49.80;;;;;;5006900;28;20216;-66
2023/01/25 02:44:06;;;;;;;3.15;2.95;;;19.50;49.90;;;;;;4997852;28;20247;-68
2023/01/25 02:46:36;;;;;;;2.70;2.50;;;19.50;49.80;;;;;;5005524;28;20728;-68
2023/01/25 02:49:06;;;;;;;2.83;2.60;;;19.50;49.90;;;;;;4994785;28;20181;-67
2023/01/25 02:51:36;;;;;;;2.83;2.63;;;19.50;50.40;;;;;;5010619;28;20188;-68
2023/01/25 02:54:06;;;;;;;2.88;2.67;;;19.50;49.80;;;;;;4997758;28;20183;-68
2023/01/25 02:56:32;;;;;;;2.58;2.38;;;19.50;49.80;;;;;;4989359;28;20196;-68
2023/01/25 02:59:04;;;;;;;2.40;2.20;;;19.50;49.80;;;;;;4986175;28;20189;-68
2023/01/25 03:01:35;;;;;;;3.00;2.70;;;19.50;49.80;;;;;;4986105;28;20188;-67
2023/01/25 03:04:02;;;;;;;2.88;2.60;;;19.50;49.80;;;;;;5006426;28;20172;-67
2023/01/25 03:06:28;;;;;;;2.72;2.53;;;19.50;49.80;;;;;;5013724;28;20257;-67
2023/01/25 03:08:54;;;;;;;2.92;2.72;;;19.50;49.80;;;;;;4997303;28;20283;-67
2023/01/25 03:11:20;;;;;;;2.90;2.70;;;19.50;49.80;;;;;;5013450;28;20210;-68
2023/01/25 03:13:46;;;;;;;2.60;2.40;;;19.50;49.80;;;;;;4995469;28;20271;-67
2023/01/25 03:16:12;;;;;;;2.92;2.72;;;19.50;49.80;;;;;;4977625;28;20193;-68
2023/01/25 03:18:41;;;;;;;2.60;2.40;;;19.50;49.80;;;;;;4994556;28;20565;-68
2023/01/25 03:21:14;;;;;;;2.83;2.63;;;19.50;49.80;;;;;;4989076;28;20188;-67
2023/01/25 03:23:42;;;;;;;2.55;2.40;;;19.50;49.80;;;;;;4988915;28;20189;-68
2023/01/25 03:26:13;;;;;;;2.55;2.35;;;19.50;49.80;;;;;;4997439;28;20176;-67
2023/01/25 03:28:54;;;;;;;2.70;2.50;;;19.50;49.90;;;;;;4999037;28;20187;-67
2023/01/25 03:31:20;;;;;;;2.97;2.78;;;19.50;49.80;;;;;;5013049;28;20202;-68
2023/01/25 03:33:47;;;;;;;2.80;2.60;;;19.50;49.80;;;;;;5005186;28;20188;-68
2023/01/25 03:36:13;;;;;;;3.10;2.90;;;19.50;49.80;;;;;;4997033;28;20230;-67
2023/01/25 03:38:39;;;;;;;2.72;2.53;;;19.50;49.80;;;;;;4994420;28;20679;-67
2023/01/25 03:41:07;;;;;;;2.80;2.60;;;19.50;49.80;;;;;;4996600;28;20188;-67
2023/01/25 03:43:33;;;;;;;2.67;2.47;;;19.50;49.80;;;;;;4980716;28;20185;-67
2023/01/25 03:46:01;;;;;;;2.83;2.63;;;19.50;49.80;;;;;;5005342;28;20731;-68
2023/01/25 03:48:29;;;;;;;2.75;2.55;;;19.50;49.80;;;;;;5012790;28;20256;-68
2023/01/25 03:50:58;;;;;;;2.60;2.40;;;19.50;49.90;;;;;;4993891;28;20189;-68
2023/01/25 03:53:28;;;;;;;2.90;2.70;;;19.50;49.80;;;;;;4992054;28;20281;-68
2023/01/25 03:56:07;;;;;;;2.88;2.67;;;19.50;49.80;;;;;;4990964;28;20185;-68
2023/01/25 03:58:35;;;;;;;2.72;2.53;;;19.50;49.90;;;;;;4984268;28;20242;-67
2023/01/25 04:01:03;;;;;;;2.47;2.38;;;19.50;49.80;;;;;;5000715;28;20259;-67
2023/01/25 04:03:30;;;;;;;2.75;2.55;;;19.50;49.80;;;;;;4992287;28;20191;-67
2023/01/25 04:05:58;;;;;;;2.90;2.70;;;19.50;49.80;;;;;;4985291;28;20181;-67
2023/01/25 04:08:24;;;;;;;3.05;2.85;;;19.50;49.80;;;;;;4992814;28;20300;-68
2023/01/25 04:11:01;;;;;;;2.80;2.60;;;19.50;49.80;;;;;;5008870;28;20298;-67
2023/01/25 04:13:27;;;;;;;2.60;2.40;;;19.50;49.80;;;;;;4999723;28;20267;-67
2023/01/25 04:15:54;;;;;;;2.97;2.78;;;19.50;49.80;;;;;;4984766;28;20184;-67
2023/01/25 04:18:39;;;;;;;2.83;2.63;;;19.50;49.80;;;;;;5001155;28;20220;-68
2023/01/25 04:21:05;;;;;;;2.88;2.67;;;19.50;49.80;;;;;;4991712;28;20196;-67
2023/01/25 04:23:32;;;;;;;2.58;2.38;;;19.50;49.80;;;;;;4992149;28;20282;-68
2023/01/25 04:26:04;;;;;;;2.47;2.28;;;19.50;49.70;;;;;;5010507;28;20196;-68
2023/01/25 04:28:31;;;;;;;2.60;2.40;;;19.50;49.80;;;;;;5008276;28;20211;-67
2023/01/25 04:30:57;;;;;;;2.67;2.47;;;19.50;49.70;;;;;;5003590;28;20203;-68
2023/01/25 04:33:26;;;;;;;2.92;2.72;;;19.50;49.70;;;;;;5003575;28;20184;-66
2023/01/25 04:35:52;;;;;;;3.08;2.88;;;19.50;49.70;;;;;;5010170;28;20238;-67
2023/01/25 04:38:18;;;;;;;2.65;2.45;;;19.40;49.60;;;;;;4986678;28;20200;-67
2023/01/25 04:40:45;;;;;;;2.70;2.50;;;19.50;49.70;;;;;;4995341;28;20665;-67
2023/01/25 04:43:16;;;;;;;3.05;2.85;;;19.50;49.70;;;;;;5007598;28;20180;-67
2023/01/25 04:45:43;;;;;;;3.20;3.00;;;19.50;49.80;;;;;;5000155;28;20597;-67
2023/01/25 04:48:16;;;;;;;3.03;2.83;;;19.50;49.80;;;;;;4990184;28;20295;-67
2023/01/25 04:50:48;;;;;;;2.63;2.42;;;19.40;49.70;;;;;;4978462;28;20204;-67
2023/01/25 04:53:18;;;;;;;2.90;2.70;;;19.40;49.70;;;;;;4989218;28;20184;-67
2023/01/25 04:55:46;;;;;;;2.70;2.50;;;19.40;49.70;;;;;;4987317;28;20192;-68
2023/01/25 04:58:13;;;;;;;2.70;2.50;;;19.50;49.80;;;;;;5011415;28;20219;-68
2023/01/25 05:00:39;;;;;;;2.70;2.50;;;19.40;49.70;;;;;;5003237;28;20188;-67
2023/01/25 05:03:05;;;;;;;2.47;2.30;;;19.40;49.70;;;;;;5000363;28;20207;-67
2023/01/25 05:05:31;;;;;;;2.70;2.50;;;19.50;49.80;;;;;;4991099;28;20215;-67
2023/01/25 05:07:59;;;;;;;2.92;2.72;;;19.40;49.70;;;;;;4987457;28;20236;-68
2023/01/25 05:10:26;;;;;;;2.65;2.45;;;19.40;49.70;;;;;;4995122;28;20195;-67
2023/01/25 05:13:10;;;;;;;2.95;2.75;;;19.40;49.60;;;;;;5004527;28;20223;-68
2023/01/25 05:15:37;;;;;;;3.30;3.00;;;19.40;49.60;;;;;;4995251;28;20188;-67
2023/01/25 05:18:03;;;;;;;2.72;2.53;;;19.50;49.80;;;;;;5023646;23;20307;-66
2023/01/25 05:20:31;;;;;;;2.85;2.65;;;19.40;49.60;;;;;;5004555;28;20546;-66
2023/01/25 05:22:57;;;;;;;2.60;2.40;;;19.50;49.70;;;;;;4989847;28;20202;-66
2023/01/25 05:28:08;;;;;;;3.00;2.70;;;19.50;49.70;;;;;;4971989;28;20247;-65
2023/01/25 05:30:56;;;;;;;2.30;2.20;;;19.50;49.80;;;;;;4958856;28;20211;-66
2023/01/25 05:33:24;;;;;;;3.05;2.85;;;19.40;49.70;;;;;;4971750;28;20221;-66
2023/01/25 05:35:50;;;;;;;2.75;2.55;;;19.40;49.70;;;;;;4971759;28;20220;-66
2023/01/25 05:38:16;;;;;;;2.90;2.70;;;19.40;49.70;;;;;;4955634;28;20280;-65
2023/01/25 05:40:42;;;;;;;2.78;2.58;;;19.40;49.70;;;;;;4962985;28;20193;-67
2023/01/25 05:43:08;;;;;;;2.60;2.40;;;19.50;49.80;;;;;;4956415;28;20240;-68
2023/01/25 05:45:34;;;;;;;2.85;2.65;;;19.40;49.70;;;;;;4967917;28;20217;-68
2023/01/25 05:48:02;;;;;;;2.95;2.75;;;19.40;49.70;;;;;;4971373;28;20206;-67
2023/01/25 05:50:29;;;;;;;3.00;2.80;;;19.50;49.80;;;;;;4987807;28;20189;-67
2023/01/25 05:53:04;;;;;;;2.47;2.30;;;19.40;49.60;;;;;;4968669;28;20194;-67
2023/01/25 05:55:30;;;;;;;2.83;2.63;;;19.40;49.70;;;;;;4966984;28;20289;-67
2023/01/25 05:58:00;;;;;;;2.90;2.70;;;19.40;49.70;;;;;;4971978;28;20221;-67
2023/01/25 06:00:26;;;;;;;3.05;2.85;;;19.40;49.70;;;;;;4971527;28;20221;-68
2023/01/25 06:02:52;;;;;;;2.80;2.60;;;19.40;49.70;;;;;;4970248;28;20197;-67
2023/01/25 06:05:22;;;;;;;2.65;2.45;;;19.40;49.70;;;;;;4988006;28;20741;-67
2023/01/25 06:07:48;;;;;;;2.80;2.60;;;19.50;49.80;;;;;;4971888;28;20220;-67
2023/01/25 06:10:17;;;;;;;2.70;2.50;;;19.40;49.70;;;;;;4960185;28;20205;-65
2023/01/25 06:12:45;;;;;;;2.88;2.67;;;19.40;49.70;;;;;;4968824;28;20682;-67
2023/01/25 06:15:11;;;;;;;2.60;2.40;;;19.40;49.70;;;;;;4977628;28;20194;-67
2023/01/25 06:17:37;;;;;;;3.10;2.90;;;19.40;49.70;;;;;;4954848;28;20233;-68
2023/01/25 06:20:28;;;;;;;3.05;2.80;;;19.40;49.70;;;;;;4976796;28;20205;-67
2023/01/25 06:23:03;;;;;;;2.80;2.60;;;19.40;49.80;;;;;;4953564;28;20193;-68
2023/01/25 06:25:29;;;;;;;3.38;3.08;;;19.40;49.70;;;;;;4965558;28;20189;-67
2023/01/25 06:27:55;;;;;;;3.15;2.80;;;19.50;49.80;;;;;;4954597;28;20217;-68
2023/01/25 06:30:20;;;;;;;2.85;2.65;;;19.40;49.80;;;;;;4954811;28;20194;-68
2023/01/25 06:32:46;;;;;;;3.05;2.85;;;19.40;49.70;;;;;;4979301;28;20199;-67
2023/01/25 06:35:12;;;;;;;2.95;2.75;;;19.40;49.80;;;;;;4954940;28;20193;-67
2023/01/25 06:37:38;;;;;;;2.70;2.50;;;19.40;49.80;;;;;;4970753;28;20233;-68
2023/01/25 06:40:04;;;;;;;2.75;2.55;;;19.40;49.80;;;;;;4986702;28;20193;-67
2023/01/25 06:42:30;;;;;;;2.75;2.55;;;19.40;49.80;;;;;;4971030;28;20202;-68
2023/01/25 06:44:55;;;;;;;3.08;2.75;;;19.40;49.80;;;;;;4970402;28;20402;-66
2023/01/25 06:47:21;;;;;;;2.97;2.78;;;19.40;49.80;;;;;;4969513;28;20285;-67
2023/01/25 06:49:47;;;;;;;2.92;2.72;;;19.40;49.80;;;;;;4953976;28;20186;-67
2023/01/25 06:52:13;;;;;;;3.05;2.85;;;19.40;49.80;;;;;;4969870;28;20230;-67
2023/01/25 06:54:39;;;;;;;2.85;2.65;;;19.40;49.80;;;;;;4985988;28;20635;-67
2023/01/25 06:57:04;;;;;;;2.65;2.45;;;19.40;49.80;;;;;;4989115;28;20252;-66
2023/01/25 06:59:30;;;;;;;3.15;2.85;;;19.40;49.80;;;;;;4974099;28;20193;-66
2023/01/25 07:01:56;;;;;;;3.00;2.80;;;19.40;49.80;;;;;;4957788;28;20198;-67
2023/01/25 07:04:22;;;;;;;2.90;2.65;;;19.40;49.80;;;;;;4990327;28;20186;-67
2023/01/25 07:06:47;;;;;;;2.85;2.65;;;19.40;49.80;;;;;;4971197;28;20218;-68
2023/01/25 07:09:14;;;;;;;2.80;2.60;;;19.40;49.80;;;;;;4974050;28;20189;-68
2023/01/25 07:11:40;;;;;;;3.10;2.90;;;19.40;49.80;;;;;;4973894;28;20186;-67
2023/01/25 07:14:05;;;;;;;3.65;2.95;;;19.40;49.80;;;;;;4975239;28;20225;-67
2023/01/25 07:16:35;;;;;;;3.42;3.03;;;19.40;49.80;;;;;;4973714;28;20197;-67
2023/01/25 07:19:06;;;;;;;3.30;3.03;;;19.40;49.80;;;;;;4975093;28;20189;-66
2023/01/25 07:21:32;;;;;;;2.65;2.45;;;19.30;49.80;;;;;;4957893;28;20211;-67
2023/01/25 07:24:03;;;;;;;3.30;3.10;;;19.30;49.80;;;;;;4974985;28;20260;-66
2023/01/25 07:26:30;;;;;;;3.30;2.90;;;19.30;49.70;;;;;;4957770;28;20198;-67
2023/01/25 07:28:58;;;;;;;3.25;2.95;;;19.30;49.70;;;;;;4957489;28;20260;-66
2023/01/25 07:31:25;;;;;;;3.13;2.85;;;19.30;49.70;;;;;;4973522;28;20186;-67
2023/01/25 07:33:55;;;;;;;3.20;2.90;;;19.40;49.80;;;;;;4954985;28;20190;-67
2023/01/25 07:36:21;;;;;;;3.10;2.90;;;19.30;49.80;;;;;;4973625;28;20193;-67
2023/01/25 07:38:53;;;;;;;2.92;2.60;;;19.30;49.70;;;;;;4973454;28;20219;-67
2023/01/25 07:41:20;;;;;;;2.85;2.65;;;19.40;49.80;;;;;;4957389;28;20228;-67
2023/01/25 07:43:45;;;;;;;3.40;3.05;;;19.30;49.70;;;;;;4973401;28;20239;-67
2023/01/25 07:46:17;;;;;;;3.50;3.20;;;19.40;49.80;;;;;;4973347;28;20257;-66
2023/01/25 07:48:48;;;;;;;3.00;2.80;;;19.30;49.80;;;;;;4957204;28;20248;-67
2023/01/25 07:51:23;;;;;;;2.92;2.72;;;19.40;49.80;;;;;;4962321;28;20198;-67
2023/01/25 07:53:53;;;;;;;3.20;2.70;;;19.40;49.80;;;;;;4970163;28;20208;-67
2023/01/25 07:56:22;;;;;;;3.53;3.22;;;19.30;49.70;;;;;;4957343;28;20276;-67
2023/01/25 07:58:47;;;;;;;3.25;2.95;;;19.30;49.70;;;;;;4972551;28;20224;-64
2023/01/25 08:01:17;;;;;;;2.90;2.70;;;19.40;49.80;;;;;;4974122;28;20182;-68
2023/01/25 08:03:44;;;;;;;3.40;3.10;;;19.30;49.70;;;;;;4974426;28;20197;-67
2023/01/25 08:06:10;;;;;;;3.20;2.90;;;19.40;49.80;;;;;;4981115;28;20213;-68
2023/01/25 08:08:43;;;;;;;2.85;2.65;;;19.30;49.70;;;;;;4973552;28;20468;-68
2023/01/25 08:11:22;;;;;;;3.05;2.85;;;19.30;49.70;;;;;;4957087;28;20197;-67
2023/01/25 08:13:48;;;;;;;3.22;2.92;;;19.30;49.70;;;;;;4957006;28;20193;-67
2023/01/25 08:16:17;;;;;;;3.33;3.03;;;19.30;49.70;;;;;;4972758;28;20201;-67
2023/01/25 08:18:51;;;;;;;3.15;2.85;;;19.30;49.70;;;;;;4972850;28;20217;-67
2023/01/25 08:21:17;;;;;;;3.28;2.97;;;19.30;49.80;;;;;;4956574;28;20201;-67
2023/01/25 08:23:43;;;;;;;3.60;3.10;;;19.40;49.80;;;;;;4969695;28;20194;-67
2023/01/25 08:26:13;;;;;;;3.47;3.17;;;19.30;49.70;;;;;;4988992;28;20203;-67
2023/01/25 08:28:39;;;;;;;3.40;3.10;;;19.30;49.70;;;;;;4972532;28;20214;-68
2023/01/25 08:31:12;;;;;;;3.15;2.85;;;19.30;49.70;;;;;;4973685;28;20190;-68
2023/01/25 08:33:39;;;;;;;4.00;3.63;;;19.30;49.70;;;;;;4956551;28;20280;-67
2023/01/25 08:36:09;;;;;;;3.30;3.00;;;19.40;49.80;;;;;;4972898;28;20196;-67
2023/01/25 08:38:36;;;;;;;3.85;3.55;;;19.40;49.80;;;;;;4956457;28;20212;-67
2023/01/25 08:41:08;;;;;;;3.67;3.38;;;19.30;49.70;;;;;;4955848;28;20185;-67
2023/01/25 08:43:34;;;;;;;3.50;3.20;;;19.30;49.70;;;;;;4972805;28;20257;-67
2023/01/25 08:46:00;;;;;;;3.22;3.03;;;19.30;49.70;;;;;;4988714;28;20190;-67
2023/01/25 08:48:26;;;;;;;3.40;3.10;;;19.30;49.80;;;;;;4972364;28;20213;-68
2023/01/25 08:50:52;;;;;;;3.35;3.15;;;19.30;49.70;;;;;;4972254;28;20555;-67
2023/01/25 08:53:18;;;;;;;3.70;3.40;;;19.40;49.80;;;;;;4972598;28;20301;-67
2023/01/25 08:55:44;;;;;;;3.53;3.22;;;19.30;49.80;;;;;;4972327;28;20226;-68
2023/01/25 08:58:12;;;;;;;4.05;3.33;;;19.30;49.70;;;;;;4972288;28;20221;-68
2023/01/25 09:00:39;;;;;;;3.35;3.05;;;19.30;49.70;;;;;;4973566;28;20198;-66
2023/01/25 09:03:10;;;;;;;3.40;3.10;;;19.30;49.70;;;;;;4962863;28;20200;-68
2023/01/25 09:05:38;;;;;;;3.20;2.90;;;19.40;49.80;;;;;;4956157;28;20189;-64
2023/01/25 09:08:07;;;;;;;3.30;3.10;;;19.30;49.70;;;;;;4987924;28;20209;-69
2023/01/25 09:10:33;;;;;;;2.92;2.72;;;19.40;49.80;;;;;;4984860;28;20206;-68
2023/01/25 09:12:59;;;;;;;3.03;2.80;;;19.40;49.80;;;;;;4988271;28;20276;-68
2023/01/25 09:15:26;;;;;;;3.15;2.92;;;19.30;49.70;;;;;;4972167;28;20201;-68
2023/01/25 09:17:54;;;;;;;3.30;2.70;;;19.40;49.80;;;;;;4955526;28;20716;-68
2023/01/25 09:20:21;;;;;;;3.42;3.13;;;19.30;49.70;;;;;;4976304;28;20190;-68
2023/01/25 09:22:47;;;;;;;3.60;3.30;;;19.40;49.80;;;;;;4971968;28;20204;-68
2023/01/25 09:25:13;;;;;;;3.40;2.75;;;19.40;49.80;;;;;;4988359;28;20197;-68
2023/01/25 09:27:40;;;;;;;4.10;3.22;;;19.40;49.80;;;;;;4988125;28;20352;-66
2023/01/25 09:30:09;;;;;;;2.92;2.60;;;19.30;49.80;;;;;;4955596;28;20193;-68
2023/01/25 09:32:36;;;;;;;3.38;3.08;;;19.30;49.70;;;;;;4955758;28;20714;-68
2023/01/25 09:35:03;;;;;;;3.25;2.95;;;19.40;49.80;;;;;;4987898;28;20324;-68
2023/01/25 09:37:29;;;;;;;8.10;2.97;;;19.30;49.80;;;;;;4972942;28;20237;-68
2023/01/25 09:39:54;;;;;;;5.07;3.13;;;19.40;51.40;;;;;;4971181;28;20198;-69
2023/01/25 09:42:35;;;;;;;7.80;3.05;;;19.40;51.30;;;;;;4973091;28;20189;-68
2023/01/25 09:45:06;;;;;;;3.70;2.70;;;19.40;51.40;;;;;;4971567;28;20674;-68
2023/01/25 09:47:44;;;;;;;5.43;2.90;;;19.40;51.30;;;;;;4955478;28;20281;-68
2023/01/25 09:50:38;;;;;;;3.80;2.63;;;19.40;51.30;;;;;;4972889;28;20193;-69
2023/01/25 09:53:11;;;;;;;5.30;2.70;;;19.40;51.30;;;;;;4972997;28;20186;-69
2023/01/25 09:55:39;;;;;;;10.93;3.17;;;19.40;51.20;;;;;;4968465;28;20198;-68
2023/01/25 09:58:16;;;;;;;3.40;3.10;;;19.40;51.20;;;;;;4985739;28;20790;-69
2023/01/25 10:00:46;;;;;;;5.22;3.03;;;19.40;50.90;;;;;;4971475;28;20280;-69
2023/01/25 10:03:33;;;;;;;3.92;3.17;;;19.40;50.90;;;;;;4971775;28;20190;-68
2023/01/25 10:06:01;;;;;;;3.05;2.50;;;19.40;50.80;;;;;;4987845;28;20240;-68
2023/01/25 10:08:57;;;;;;;3.65;2.80;;;19.40;50.80;;;;;;4969418;28;20233;-68
2023/01/25 10:11:30;;;;;;;3.08;2.78;;;19.40;50.80;;;;;;4988090;28;20259;-67
2023/01/25 10:13:57;;;;;;;3.10;2.22;;;19.40;50.80;;;;;;4955796;28;20197;-67
2023/01/25 10:16:54;;;;;;;2.58;2.20;;;19.30;50.70;;;;;;4987729;28;20213;-67
2023/01/25 10:20:17;;;;;;;3.38;3.08;;;19.40;50.80;;;;;;4953741;28;20194;-65
2023/01/25 10:23:14;;;;;;;2.90;2.70;;;19.30;50.70;;;;;;4939075;29;20207;-67
2023/01/25 10:25:54;;;;;;;2.88;2.60;;;19.40;50.80;;;;;;4987370;28;20560;-67
2023/01/25 10:28:38;;;;;;;5.05;2.90;;;19.30;50.70;;;;;;4963355;28;20295;-67
2023/01/25 10:31:18;;;;;;;2.80;2.40;;;19.30;50.70;;;;;;4956730;28;20291;-67
2023/01/25 10:33:47;;;;;;;2.92;2.50;;;19.40;50.70;;;;;;4959091;28;20247;-67
2023/01/25 10:36:20;;;;;;;3.42;2.60;;;19.30;50.60;;;;;;4990312;28;20260;-66
2023/01/25 10:38:57;;;;;;;2.92;2.72;;;19.30;50.50;;;;;;4958752;28;20221;-66
2023/01/25 10:41:37;;;;;;;2.55;2.35;;;19.30;50.50;;;;;;4974658;28;20201;-65
2023/01/25 10:44:23;;;;;;;2.90;2.70;;;19.30;50.50;;;;;;4990923;28;20189;-67
2023/01/25 10:47:14;;;;;;;2.78;2.58;;;19.30;50.40;;;;;;4975849;28;20209;-67
2023/01/25 10:49:47;;;;;;;2.47;2.28;;;19.40;50.50;;;;;;4958474;28;20229;-67
2023/01/25 10:52:19;;;;;;;2.67;2.47;;;19.30;50.40;;;;;;4974468;28;20236;-67
2023/01/25 10:55:00;;;;;;;3.05;2.75;;;19.30;50.40;;;;;;4958706;28;20196;-67
2023/01/25 10:57:26;;;;;;;2.20;2.00;;;19.30;50.40;;;;;;4974473;28;20609;-67
2023/01/25 10:59:52;;;;;;;3.00;2.70;;;19.30;50.40;;;;;;4974196;28;20208;-65
2023/01/25 11:02:44;;;;;;;2.90;2.30;;;19.30;50.40;;;;;;4974359;28;20197;-67
2023/01/25 11:05:36;;;;;;;3.15;2.65;;;19.40;50.40;;;;;;4974442;28;20232;-67
2023/01/25 11:08:29;;;;;;;2.45;2.25;;;19.30;50.40;;;;;;4975300;28;20225;-67
2023/01/25 11:10:56;;;;;;;3.42;2.83;;;19.40;50.50;;;;;;4975321;28;20201;-67
2023/01/25 11:13:28;;;;;;;2.70;2.50;;;19.30;50.30;;;;;;4958022;28;20641;-67
2023/01/25 11:16:03;;;;;;;3.78;2.60;;;19.30;50.30;;;;;;4974253;28;20194;-67
2023/01/25 11:18:33;;;;;;;3.30;2.30;;;19.40;50.40;;;;;;5005716;23;20774;-71
2023/01/25 11:21:18;;;;;;;3.08;2.88;;;19.40;50.40;;;;;;4976740;28;20260;-71
2023/01/25 11:24:02;;;;;;;2.45;2.20;;;19.40;50.40;;;;;;4958214;28;20245;-72
2023/01/25 11:26:30;;;;;;;2.53;2.33;;;19.30;50.30;;;;;;4969794;28;20192;-71
2023/01/25 11:29:19;;;;;;;2.60;2.40;;;19.30;50.20;;;;;;4969781;28;20272;-72
2023/01/25 11:31:54;;;;;;;2.78;2.58;;;19.30;50.20;;;;;;4963784;28;20203;-72
2023/01/25 11:34:25;;;;;;;2.85;2.28;;;19.30;50.30;;;;;;4976920;28;20198;-72
2023/01/25 11:37:07;;;;;;;3.63;2.83;;;19.30;50.30;;;;;;4976934;28;20291;-72
2023/01/25 11:40:12;;;;;;;2.72;2.53;;;19.30;50.20;;;;;;4953765;29;20205;-72
2023/01/25 11:43:19;;;;;;;2.63;2.20;;;19.30;50.20;;;;;;4950163;28;20224;-72
2023/01/25 11:46:18;;;;;;;2.72;2.53;;;19.40;50.30;;;;;;4986679;28;20190;-72
2023/01/25 11:49:09;;;;;;;2.63;2.28;;;19.30;50.20;;;;;;4989737;28;20216;-72
2023/01/25 11:51:51;;;;;;;2.55;2.35;;;19.40;50.20;;;;;;4993906;28;20195;-72
2023/01/25 11:54:40;;;;;;;2.63;2.42;;;19.30;50.20;;;;;;4977067;28;20228;-72
2023/01/25 11:57:40;;;;;;;2.60;2.40;;;19.30;50.20;;;;;;4976453;28;20283;-72
2023/01/25 12:00:35;;;;;;;2.67;2.47;;;19.30;50.20;;;;;;4976576;28;20224;-72
2023/01/25 12:03:28;;;;;;;2.53;2.33;;;19.30;50.20;;;;;;4968984;28;20201;-72
2023/01/25 12:06:38;;;;;;;2.40;2.20;;;19.30;50.20;;;;;;4957053;28;20580;-72
2023/01/25 12:09:28;;;;;;;2.50;2.30;;;19.30;50.20;;;;;;4953908;28;20213;-72
2023/01/25 12:12:24;;;;;;;2.10;2.00;;;19.30;50.20;;;;;;4971159;28;20248;-71
2023/01/25 12:15:15;;;;;;;2.63;2.42;;;19.30;50.20;;;;;;4984373;28;20579;-72
2023/01/25 12:18:04;;;;;;;2.63;2.42;;;19.30;50.20;;;;;;4963888;28;20229;-71
2023/01/25 12:21:09;;;;;;;2.60;2.40;;;19.30;50.20;;;;;;4944466;28;20181;-71
2023/01/25 12:24:12;;;;;;;2.50;2.30;;;19.40;50.20;;;;;;4976479;28;20192;-72
2023/01/25 12:27:13;;;;;;;2.85;2.63;;;19.30;50.10;;;;;;4953538;29;20186;-72
2023/01/25 12:29:48;;;;;;;3.00;2.70;;;19.30;50.10;;;;;;4979343;28;20274;-72
2023/01/25 12:32:52;;;;;;;2.53;2.33;;;19.30;50.10;;;;;;4964614;28;20185;-72
2023/01/25 12:35:38;;;;;;;2.28;2.13;;;19.40;50.20;;;;;;4966318;28;20192;-71
2023/01/25 12:38:14;;;;;;;2.70;2.50;;;19.30;50.10;;;;;;4968014;28;20304;-72
2023/01/25 12:41:12;;;;;;;2.55;2.35;;;19.30;50.10;;;;;;4948092;28;20190;-71
2023/01/25 12:43:47;;;;;;;2.60;2.40;;;19.30;50.20;;;;;;4946437;28;20188;-71
2023/01/25 12:46:45;;;;;;;2.53;2.33;;;19.30;50.70;;;;;;4975755;28;20196;-71
2023/01/25 12:49:26;;;;;;;2.45;2.25;;;19.30;50.10;;;;;;4975323;28;20303;-72
2023/01/25 12:51:55;;;;;;;2.40;2.20;;;19.30;50.10;;;;;;4959701;28;20193;-72
2023/01/25 12:54:37;;;;;;;2.47;2.28;;;19.30;50.10;;;;;;4975392;28;20201;-72
2023/01/25 12:57:12;;;;;;;2.15;1.98;;;19.30;50.10;;;;;;4959512;28;20209;-71
2023/01/25 13:00:17;;;;;;;2.38;2.17;;;19.30;50.10;;;;;;4972389;28;20184;-71
2023/01/25 13:03:13;;;;;;;2.10;2.00;;;19.30;50.20;;;;;;4952978;29;20232;-71
2023/01/25 13:05:52;;;;;;;2.55;2.35;;;19.30;50.10;;;;;;4978852;28;20235;-71
2023/01/25 13:08:43;;;;;;;2.42;2.22;;;19.30;50.20;;;;;;4939942;28;20243;-71
2023/01/25 13:11:20;;;;;;;2.20;2.05;;;19.30;50.20;;;;;;4972269;28;20195;-71
2023/01/25 13:13:46;;;;;;;2.22;2.13;;;19.30;50.10;;;;;;4991363;28;20193;-72
2023/01/25 13:16:29;;;;;;;3.30;2.80;;;19.30;50.10;;;;;;4975152;28;20212;-71
2023/01/25 13:18:57;;;;;;;2.15;2.00;;;19.30;50.10;;;;;;4968693;28;20232;-71